Time;durP1;ratioP1;P1;durP2;ratioP2;P2;SDS_P1;SDS_P2;PMS_P1;PMS_P2;Temp;Humidity;BMP_temperature;BMP_pressure;BME280_temperature;BME280_humidity;BME280_pressure;Samples;Min_cycle;Max_cycle;Signal;HPM_P1;HPM_P2
2021/06/05 00:00:27;;;;;;;7.80;7.13;;;18.80;99.90;;;;;;5112250;28;20157;-80
2021/06/05 00:02:54;;;;;;;8.10;6.90;;;18.80;99.90;;;;;;5129226;28;20492;-83
2021/06/05 00:05:22;;;;;;;8.63;7.80;;;18.80;99.90;;;;;;5095088;28;20853;-84
2021/06/05 00:07:49;;;;;;;8.03;7.23;;;18.60;99.90;;;;;;5115529;28;20464;-84
2021/06/05 00:10:21;;;;;;;8.80;8.07;;;18.60;99.90;;;;;;5134357;28;20388;-82
2021/06/05 00:12:47;;;;;;;9.27;8.33;;;18.60;99.90;;;;;;5116334;28;20380;-83
2021/06/05 00:15:19;;;;;;;8.83;8.03;;;18.50;99.90;;;;;;5116094;28;20403;-82
2021/06/05 00:17:46;;;;;;;9.27;8.30;;;18.40;99.90;;;;;;5139771;28;20166;-83
2021/06/05 00:20:13;;;;;;;7.90;6.60;;;18.30;99.90;;;;;;5105982;28;20411;-79
2021/06/05 00:22:39;;;;;;;6.23;5.70;;;18.30;99.90;;;;;;5123336;28;20408;-81
2021/06/05 00:25:13;;;;;;;7.30;6.70;;;18.20;99.90;;;;;;5140180;28;20478;-84
2021/06/05 00:27:38;;;;;;;7.73;7.13;;;18.20;99.90;;;;;;5114318;28;20400;-83
2021/06/05 00:30:08;;;;;;;8.33;7.60;;;18.20;99.90;;;;;;5132632;28;20853;-84
2021/06/05 00:32:34;;;;;;;7.80;7.00;;;18.30;99.90;;;;;;5132703;28;20170;-83
2021/06/05 00:35:01;;;;;;;7.90;7.10;;;18.40;99.90;;;;;;5132403;28;20403;-82
2021/06/05 00:37:27;;;;;;;9.47;8.50;;;18.50;99.90;;;;;;5132544;28;20384;-84
2021/06/05 00:39:53;;;;;;;8.20;7.43;;;18.70;99.90;;;;;;5133391;28;20419;-84
2021/06/05 00:42:19;;;;;;;9.60;8.13;;;18.70;99.90;;;;;;5097947;28;20162;-84
2021/06/05 00:44:45;;;;;;;8.00;7.30;;;18.80;99.90;;;;;;5115247;28;20216;-84
2021/06/05 00:47:11;;;;;;;10.30;8.47;;;18.70;99.90;;;;;;5134043;28;20440;-84
2021/06/05 00:49:36;;;;;;;8.53;7.77;;;18.70;99.90;;;;;;5133464;28;20158;-84
2021/06/05 00:52:05;;;;;;;6.93;6.37;;;18.80;99.90;;;;;;5136735;28;20143;-83
2021/06/05 00:54:32;;;;;;;8.73;7.73;;;18.80;99.90;;;;;;5140860;28;20223;-83
2021/06/05 00:57:01;;;;;;;8.73;7.83;;;18.80;99.90;;;;;;5140817;28;20412;-83
2021/06/05 00:59:27;;;;;;;11.90;8.70;;;18.70;99.90;;;;;;5122147;28;20399;-82
2021/06/05 01:01:53;;;;;;;9.60;8.70;;;18.80;99.90;;;;;;5136288;28;20423;-83
2021/06/05 01:04:20;;;;;;;8.40;7.70;;;18.60;99.90;;;;;;5134313;28;20400;-84
2021/06/05 01:06:54;;;;;;;8.10;7.30;;;18.50;99.90;;;;;;5132103;28;20396;-83
2021/06/05 01:09:57;;;;;;;9.67;8.67;;;18.50;99.90;;;;;;5132163;28;20419;-83
2021/06/05 01:12:41;;;;;;;8.67;7.87;;;18.60;99.90;;;;;;5115550;28;20396;-83
2021/06/05 01:15:12;;;;;;;7.77;7.07;;;18.10;99.90;;;;;;5131429;28;20469;-84
2021/06/05 01:17:44;;;;;;;10.63;7.30;;;17.70;99.90;;;;;;5096853;28;20396;-83
2021/06/05 01:20:17;;;;;;;8.37;7.57;;;17.60;99.90;;;;;;5132243;28;20396;-83
2021/06/05 01:23:03;;;;;;;8.63;7.83;;;17.60;99.90;;;;;;5114781;28;20395;-83
2021/06/05 01:26:04;;;;;;;10.37;7.43;;;17.70;99.90;;;;;;5134082;28;20436;-83
2021/06/05 01:28:43;;;;;;;9.17;8.23;;;17.60;99.90;;;;;;5133533;28;20384;-83
2021/06/05 01:31:13;;;;;;;8.37;7.43;;;17.60;99.90;;;;;;5131373;28;20391;-83
2021/06/05 01:33:41;;;;;;;9.13;7.50;;;17.50;99.90;;;;;;5113047;28;20391;-83
2021/06/05 01:36:13;;;;;;;8.60;7.77;;;17.50;99.90;;;;;;5131659;28;20402;-83
2021/06/05 01:38:44;;;;;;;10.37;9.40;;;17.50;99.90;;;;;;5131037;28;20380;-83
2021/06/05 01:41:13;;;;;;;15.27;8.90;;;17.50;99.90;;;;;;5131652;28;20804;-84
2021/06/05 01:43:40;;;;;;;8.97;8.03;;;17.40;99.90;;;;;;5130700;28;20456;-83
2021/06/05 01:46:07;;;;;;;10.00;8.50;;;17.20;99.90;;;;;;5131263;28;20791;-83
2021/06/05 01:48:34;;;;;;;9.50;8.67;;;17.20;99.90;;;;;;5113325;28;20451;-83
2021/06/05 01:51:04;;;;;;;12.80;10.80;;;17.20;99.90;;;;;;5131072;28;20392;-84
2021/06/05 01:53:35;;;;;;;10.77;7.57;;;17.20;99.90;;;;;;5130677;28;20423;-83
2021/06/05 01:56:12;;;;;;;8.63;7.87;;;17.10;99.90;;;;;;5131309;28;20404;-83
2021/06/05 01:58:38;;;;;;;14.57;10.50;;;17.20;99.90;;;;;;5131069;28;20395;-84
2021/06/05 02:01:05;;;;;;;10.33;8.63;;;17.40;99.90;;;;;;5132121;28;20384;-83
2021/06/05 02:03:33;;;;;;;10.20;8.50;;;17.30;99.90;;;;;;5133017;28;20425;-84
2021/06/05 02:05:59;;;;;;;9.90;9.00;;;17.20;99.90;;;;;;5131271;28;20436;-83
2021/06/05 02:08:27;;;;;;;9.83;8.83;;;17.00;99.90;;;;;;5113097;28;20427;-83
2021/06/05 02:10:59;;;;;;;10.13;8.40;;;17.00;99.90;;;;;;5131565;28;20475;-83
2021/06/05 02:13:32;;;;;;;10.40;9.40;;;16.80;99.90;;;;;;5131296;28;20487;-84
2021/06/05 02:16:03;;;;;;;11.07;9.27;;;16.90;99.90;;;;;;5129865;28;20407;-83
2021/06/05 02:18:32;;;;;;;11.07;9.07;;;17.00;99.90;;;;;;5130541;28;20460;-83
2021/06/05 02:21:11;;;;;;;9.80;8.90;;;17.10;99.90;;;;;;5131095;28;20392;-84
2021/06/05 02:24:00;;;;;;;13.00;9.40;;;17.10;99.90;;;;;;5130572;28;20388;-83
2021/06/05 02:26:26;;;;;;;10.13;9.03;;;17.20;99.90;;;;;;5129993;28;20841;-84
2021/06/05 02:28:56;;;;;;;11.37;10.00;;;17.20;99.90;;;;;;5130482;28;20403;-83
2021/06/05 02:31:22;;;;;;;10.23;9.23;;;17.20;99.90;;;;;;5131097;28;20388;-83
2021/06/05 02:33:49;;;;;;;10.90;9.67;;;17.30;99.90;;;;;;5112452;28;20393;-83
2021/06/05 02:36:17;;;;;;;8.63;7.80;;;17.30;99.90;;;;;;5130597;28;20400;-84
2021/06/05 02:38:46;;;;;;;8.93;8.03;;;17.20;99.90;;;;;;5130607;28;20400;-83
2021/06/05 02:41:15;;;;;;;11.40;8.40;;;17.20;99.90;;;;;;5129633;28;20399;-84
2021/06/05 02:43:43;;;;;;;9.70;8.90;;;17.20;99.90;;;;;;5130594;28;20408;-83
2021/06/05 02:46:15;;;;;;;8.87;8.00;;;17.20;99.90;;;;;;5112748;28;20463;-84
2021/06/05 02:48:55;;;;;;;10.10;9.20;;;17.20;99.90;;;;;;5130048;28;20439;-84
2021/06/05 02:51:24;;;;;;;10.07;7.40;;;17.10;99.90;;;;;;5130116;28;20388;-84
2021/06/05 02:53:50;;;;;;;10.50;8.37;;;17.10;99.90;;;;;;5130036;28;20402;-83
2021/06/05 02:56:16;;;;;;;11.00;8.63;;;17.10;99.90;;;;;;5130113;28;20388;-84
2021/06/05 02:58:43;;;;;;;9.30;8.40;;;17.10;99.90;;;;;;5112094;28;20174;-83
2021/06/05 03:01:10;;;;;;;9.87;8.87;;;17.10;99.90;;;;;;5130514;28;20400;-85
2021/06/05 03:03:36;;;;;;;15.03;8.00;;;17.00;99.90;;;;;;5130557;28;20392;-84
2021/06/05 03:06:03;;;;;;;8.10;7.30;;;16.90;99.90;;;;;;5112978;28;20458;-83
2021/06/05 03:08:33;;;;;;;8.03;7.23;;;16.70;99.90;;;;;;5131191;28;20427;-84
2021/06/05 03:11:00;;;;;;;8.80;8.00;;;16.70;99.90;;;;;;5131736;28;20384;-84
2021/06/05 03:13:27;;;;;;;7.93;7.23;;;16.70;99.90;;;;;;5131881;28;20380;-84
2021/06/05 03:15:55;;;;;;;9.03;8.23;;;16.50;99.90;;;;;;5114199;28;20411;-84
2021/06/05 03:18:23;;;;;;;8.13;7.33;;;16.60;99.90;;;;;;5114975;28;20839;-84
2021/06/05 03:20:52;;;;;;;8.60;7.90;;;16.60;99.90;;;;;;5133239;28;20384;-84
2021/06/05 03:23:20;;;;;;;9.47;8.57;;;16.60;99.90;;;;;;5135332;28;20392;-83
2021/06/05 03:25:46;;;;;;;9.90;8.90;;;16.60;99.90;;;;;;5138979;28;20439;-82
2021/06/05 03:28:14;;;;;;;8.23;7.57;;;16.60;99.90;;;;;;5139012;28;20420;-83
2021/06/05 03:30:40;;;;;;;8.47;7.67;;;16.60;99.90;;;;;;5120292;28;20390;-83
2021/06/05 03:33:06;;;;;;;7.80;7.00;;;16.50;99.90;;;;;;5133274;28;20400;-83
2021/06/05 03:35:32;;;;;;;10.57;9.57;;;16.60;99.90;;;;;;5118644;28;20437;-83
2021/06/05 03:37:59;;;;;;;9.23;8.43;;;16.60;99.90;;;;;;5137858;28;20400;-84
2021/06/05 03:40:30;;;;;;;8.70;7.93;;;16.60;99.90;;;;;;5132511;28;20911;-84
2021/06/05 03:42:56;;;;;;;11.47;8.73;;;16.50;99.90;;;;;;5133309;28;20399;-84
2021/06/05 03:45:22;;;;;;;9.70;8.67;;;16.60;99.90;;;;;;5133273;28;20443;-83
2021/06/05 03:47:49;;;;;;;9.10;8.20;;;16.60;99.90;;;;;;5102869;28;20451;-83
2021/06/05 03:50:18;;;;;;;8.27;7.53;;;16.50;99.90;;;;;;5094509;28;20221;-83
2021/06/05 03:52:44;;;;;;;9.90;8.30;;;16.60;99.90;;;;;;5113471;28;20389;-83
2021/06/05 03:55:12;;;;;;;9.10;8.30;;;16.50;99.90;;;;;;5112870;28;20435;-82
2021/06/05 03:57:38;;;;;;;10.40;8.73;;;16.40;99.90;;;;;;5112196;28;20405;-83
2021/06/05 04:00:08;;;;;;;9.53;8.63;;;16.30;99.90;;;;;;5094843;28;20395;-83
2021/06/05 04:02:33;;;;;;;10.13;8.73;;;16.40;99.90;;;;;;5112442;28;20461;-83
2021/06/05 04:04:59;;;;;;;10.00;9.17;;;16.40;99.90;;;;;;5112623;28;20445;-82
2021/06/05 04:07:25;;;;;;;11.93;10.10;;;16.50;99.90;;;;;;5112561;28;20158;-83
2021/06/05 04:09:51;;;;;;;9.97;9.00;;;16.50;99.90;;;;;;5112429;28;20424;-83
2021/06/05 04:12:16;;;;;;;10.83;9.60;;;16.60;99.90;;;;;;5077299;28;20166;-84
2021/06/05 04:14:43;;;;;;;11.43;9.63;;;16.50;99.90;;;;;;5111804;28;20169;-83
2021/06/05 04:17:10;;;;;;;10.50;9.50;;;16.60;99.90;;;;;;5112301;28;20163;-83
2021/06/05 04:19:37;;;;;;;11.53;9.50;;;16.60;99.90;;;;;;5112583;28;20393;-82
2021/06/05 04:22:05;;;;;;;9.63;8.63;;;16.60;99.90;;;;;;5112479;28;20460;-83
2021/06/05 04:24:32;;;;;;;11.13;9.60;;;16.60;99.90;;;;;;5111830;28;20389;-82
2021/06/05 04:26:58;;;;;;;18.13;9.10;;;16.70;99.90;;;;;;5094339;28;20377;-83
2021/06/05 04:29:24;;;;;;;9.53;8.53;;;16.80;99.90;;;;;;5094377;28;20377;-83
2021/06/05 04:31:51;;;;;;;9.47;8.37;;;16.90;99.90;;;;;;5112348;28;20173;-83
2021/06/05 04:34:16;;;;;;;11.13;9.90;;;17.00;99.90;;;;;;5112083;28;20246;-83
2021/06/05 04:36:42;;;;;;;12.60;8.67;;;17.00;99.90;;;;;;5112031;28;20393;-83
2021/06/05 04:39:08;;;;;;;10.87;9.60;;;17.10;99.90;;;;;;5093768;28;20162;-82
2021/06/05 04:41:34;;;;;;;11.53;10.33;;;17.20;99.90;;;;;;5111979;28;20887;-83
2021/06/05 04:44:00;;;;;;;13.57;11.40;;;17.40;99.90;;;;;;5112124;28;20424;-84
2021/06/05 04:46:26;;;;;;;11.00;9.77;;;17.80;99.90;;;;;;5111691;28;20201;-83
2021/06/05 04:48:52;;;;;;;11.77;10.30;;;18.10;99.90;;;;;;5132535;28;20166;-83
2021/06/05 04:51:21;;;;;;;10.40;9.33;;;18.30;99.90;;;;;;5131882;28;20395;-83
2021/06/05 04:53:47;;;;;;;10.53;9.53;;;18.40;99.90;;;;;;5131232;28;20388;-83
2021/06/05 04:56:14;;;;;;;10.30;9.27;;;18.50;99.90;;;;;;5132728;28;20388;-83
2021/06/05 04:58:40;;;;;;;9.23;8.30;;;18.50;99.90;;;;;;5131031;28;20404;-83
2021/06/05 05:01:06;;;;;;;13.93;9.47;;;18.50;99.90;;;;;;5132448;28;20384;-83
2021/06/05 05:03:32;;;;;;;12.90;9.00;;;18.50;99.90;;;;;;5113741;28;20599;-83
2021/06/05 05:06:02;;;;;;;13.93;9.90;;;18.30;99.90;;;;;;5132024;28;20197;-83
2021/06/05 05:08:29;;;;;;;8.90;8.10;;;18.10;99.90;;;;;;5132085;28;20190;-83
2021/06/05 05:10:57;;;;;;;9.00;8.20;;;17.90;99.90;;;;;;5132354;28;20392;-83
2021/06/05 05:13:27;;;;;;;9.17;8.33;;;18.20;99.90;;;;;;5115076;28;20522;-83
2021/06/05 05:15:54;;;;;;;10.27;9.27;;;18.30;99.90;;;;;;5133065;28;20407;-83
2021/06/05 05:18:22;;;;;;;9.80;8.80;;;18.50;99.90;;;;;;5114654;28;20529;-83
2021/06/05 05:20:49;;;;;;;10.70;8.77;;;18.70;99.90;;;;;;5131899;28;20392;-83
2021/06/05 05:23:16;;;;;;;12.83;8.83;;;18.50;99.90;;;;;;5132000;28;20420;-84
2021/06/05 05:25:43;;;;;;;10.10;8.07;;;18.50;99.90;;;;;;5131176;28;20442;-83
2021/06/05 05:28:11;;;;;;;8.67;7.87;;;18.40;99.90;;;;;;5131824;28;20399;-83
2021/06/05 05:30:44;;;;;;;9.30;8.50;;;18.60;99.90;;;;;;5130868;28;20485;-83
2021/06/05 05:33:11;;;;;;;9.80;8.90;;;18.90;99.90;;;;;;5131662;28;20804;-83
2021/06/05 05:35:37;;;;;;;8.57;7.87;;;18.70;99.90;;;;;;5131563;28;20396;-83
2021/06/05 05:38:06;;;;;;;9.17;8.37;;;18.70;99.90;;;;;;5131695;28;20922;-83
2021/06/05 05:40:33;;;;;;;10.57;8.00;;;18.60;99.90;;;;;;5131175;28;20396;-83
2021/06/05 05:42:59;;;;;;;10.17;8.80;;;18.70;99.90;;;;;;5131832;28;20388;-84
2021/06/05 05:45:25;;;;;;;8.17;7.30;;;19.00;99.90;;;;;;5131582;28;20526;-83
2021/06/05 05:47:56;;;;;;;7.67;7.00;;;19.30;99.90;;;;;;5130952;28;20223;-84
2021/06/05 05:50:21;;;;;;;9.23;7.83;;;19.60;99.90;;;;;;5130422;28;20166;-83
2021/06/05 05:52:50;;;;;;;9.07;8.30;;;19.50;99.90;;;;;;5131439;28;20380;-83
2021/06/05 05:55:17;;;;;;;8.10;7.30;;;19.70;99.90;;;;;;5113525;28;20407;-83
2021/06/05 05:57:43;;;;;;;8.63;7.83;;;19.60;99.90;;;;;;5132032;28;20181;-83
2021/06/05 06:00:13;;;;;;;9.00;7.93;;;19.80;99.90;;;;;;5139268;27;20391;-83
2021/06/05 06:02:39;;;;;;;8.77;7.97;;;19.40;99.90;;;;;;5122982;28;20396;-83
2021/06/05 06:05:06;;;;;;;9.40;8.60;;;19.50;99.90;;;;;;5140092;27;20479;-83
2021/06/05 06:07:32;;;;;;;10.03;9.13;;;19.80;99.90;;;;;;5122553;28;20440;-82
2021/06/05 06:09:58;;;;;;;11.60;8.83;;;19.30;99.90;;;;;;5133060;28;20424;-84
2021/06/05 06:12:24;;;;;;;9.97;8.97;;;19.30;99.90;;;;;;5114020;28;20196;-83
2021/06/05 06:14:50;;;;;;;12.20;8.80;;;19.50;99.90;;;;;;5133124;28;20455;-84
2021/06/05 06:17:16;;;;;;;12.47;9.20;;;19.70;99.90;;;;;;5131786;28;20173;-83
2021/06/05 06:19:41;;;;;;;9.57;7.77;;;19.50;99.90;;;;;;5135260;28;20383;-80
2021/06/05 06:22:07;;;;;;;9.60;8.60;;;19.60;99.90;;;;;;5140165;27;20166;-81
2021/06/05 06:24:33;;;;;;;9.50;8.60;;;19.80;99.90;;;;;;5139724;27;20169;-80
2021/06/05 06:26:59;;;;;;;19.33;10.50;;;19.90;99.90;;;;;;5139846;27;20170;-81
2021/06/05 06:29:34;;;;;;;9.07;8.23;;;19.90;99.90;;;;;;5135481;27;20162;-83
2021/06/05 06:32:00;;;;;;;10.93;9.93;;;19.50;99.90;;;;;;5130764;28;20153;-83
2021/06/05 06:34:26;;;;;;;12.80;9.60;;;20.00;99.90;;;;;;5112748;28;20396;-83
2021/06/05 06:36:59;;;;;;;10.47;9.37;;;20.40;99.90;;;;;;5131358;28;20422;-83
2021/06/05 06:39:25;;;;;;;12.33;11.03;;;20.40;99.90;;;;;;5130499;28;20384;-82
2021/06/05 06:41:51;;;;;;;11.13;9.90;;;20.70;99.90;;;;;;5130525;28;20416;-82
2021/06/05 06:44:17;;;;;;;9.63;8.67;;;20.90;99.90;;;;;;5112295;28;20388;-83
2021/06/05 06:46:47;;;;;;;9.87;8.97;;;21.10;99.90;;;;;;5094212;28;20225;-83
2021/06/05 06:49:15;;;;;;;14.50;10.00;;;21.10;99.90;;;;;;5111886;28;20399;-83
2021/06/05 06:51:42;;;;;;;12.87;10.20;;;21.20;99.90;;;;;;5130172;28;20460;-83
2021/06/05 06:54:10;;;;;;;10.73;9.73;;;21.40;99.90;;;;;;5111885;28;20384;-84
2021/06/05 06:56:36;;;;;;;10.77;9.87;;;21.60;99.90;;;;;;5130400;28;20396;-83
2021/06/05 06:59:04;;;;;;;10.63;9.53;;;21.70;99.90;;;;;;5131890;28;20464;-83
2021/06/05 07:01:31;;;;;;;10.77;9.67;;;21.00;99.90;;;;;;5113360;28;20392;-84
2021/06/05 07:03:56;;;;;;;10.00;8.93;;;21.20;99.90;;;;;;5129891;28;20414;-83
2021/06/05 07:06:25;;;;;;;9.77;8.77;;;21.30;99.90;;;;;;5129991;28;20439;-83
2021/06/05 07:08:52;;;;;;;10.93;9.83;;;21.40;99.90;;;;;;5129850;28;20203;-84
2021/06/05 07:11:21;;;;;;;9.33;8.53;;;21.50;99.90;;;;;;5112508;28;20384;-83
2021/06/05 07:13:47;;;;;;;11.13;10.10;;;21.50;99.90;;;;;;5130352;28;20926;-81
2021/06/05 07:16:13;;;;;;;9.47;8.57;;;21.50;99.90;;;;;;5129268;28;20399;-84
2021/06/05 07:18:39;;;;;;;9.30;8.50;;;21.60;99.90;;;;;;5129871;28;20417;-83
2021/06/05 07:21:08;;;;;;;10.30;9.37;;;21.60;99.90;;;;;;5129577;28;20424;-83
2021/06/05 07:23:36;;;;;;;10.03;8.83;;;21.80;99.90;;;;;;5130347;28;20399;-83
2021/06/05 07:26:08;;;;;;;15.03;8.70;;;21.80;99.90;;;;;;5112365;28;20486;-83
2021/06/05 07:28:42;;;;;;;8.63;7.83;;;21.70;99.90;;;;;;5112001;28;20396;-84
2021/06/05 07:31:10;;;;;;;9.73;8.67;;;21.80;99.90;;;;;;5129663;28;20426;-83
2021/06/05 07:33:37;;;;;;;9.27;8.27;;;21.40;99.90;;;;;;5129864;28;20403;-83
2021/06/05 07:36:05;;;;;;;8.63;7.73;;;21.40;99.90;;;;;;5131004;28;20419;-84
2021/06/05 07:38:31;;;;;;;8.90;8.10;;;21.50;99.90;;;;;;5129995;28;20393;-84
2021/06/05 07:40:58;;;;;;;10.00;8.10;;;21.90;99.90;;;;;;5111699;28;20417;-84
2021/06/05 07:43:27;;;;;;;8.00;7.17;;;22.10;99.90;;;;;;5078474;28;20404;-83
2021/06/05 07:45:54;;;;;;;8.37;7.67;;;22.30;99.90;;;;;;5130264;28;20439;-84
2021/06/05 07:48:22;;;;;;;9.60;7.97;;;22.50;99.90;;;;;;5129856;28;20481;-83
2021/06/05 07:50:48;;;;;;;7.97;7.30;;;22.50;99.90;;;;;;5129839;28;20397;-83
2021/06/05 07:53:14;;;;;;;8.00;7.40;;;22.80;99.90;;;;;;5129666;28;20396;-83
2021/06/05 07:55:40;;;;;;;7.10;6.50;;;22.50;99.90;;;;;;5129016;28;20432;-84
2021/06/05 07:58:06;;;;;;;7.77;6.90;;;22.40;99.90;;;;;;5129560;28;20181;-84
2021/06/05 08:00:34;;;;;;;12.10;5.90;;;22.60;99.90;;;;;;5129417;28;20421;-83
2021/06/05 08:03:00;;;;;;;5.70;5.20;;;22.80;99.90;;;;;;5112098;28;20396;-83
2021/06/05 08:05:27;;;;;;;6.97;5.90;;;23.10;99.90;;;;;;5111122;28;20600;-83
2021/06/05 08:07:53;;;;;;;5.80;5.30;;;23.30;99.90;;;;;;5111336;28;20426;-84
2021/06/05 08:10:24;;;;;;;5.70;4.97;;;23.30;99.90;;;;;;5130291;28;20396;-83
2021/06/05 08:12:56;;;;;;;5.50;4.60;;;23.30;99.90;;;;;;5112817;28;20157;-84
2021/06/05 08:15:27;;;;;;;4.90;4.17;;;23.50;99.90;;;;;;5129287;28;20392;-83
2021/06/05 08:17:53;;;;;;;4.47;4.10;;;23.60;99.90;;;;;;5112074;28;20400;-83
2021/06/05 08:20:23;;;;;;;4.27;3.90;;;23.70;99.90;;;;;;5111221;28;20452;-84
2021/06/05 08:22:49;;;;;;;5.43;4.17;;;23.80;99.90;;;;;;5130115;28;20396;-84
2021/06/05 08:25:16;;;;;;;3.90;3.60;;;23.70;99.90;;;;;;5114428;28;20465;-84
2021/06/05 08:27:43;;;;;;;3.83;3.53;;;23.80;99.90;;;;;;5135221;28;20408;-82
2021/06/05 08:30:15;;;;;;;4.40;4.00;;;23.90;99.90;;;;;;5119261;28;20388;-84
2021/06/05 08:32:43;;;;;;;3.83;3.53;;;24.00;99.90;;;;;;5119945;28;20391;-83
2021/06/05 08:35:09;;;;;;;3.80;3.50;;;24.00;99.90;;;;;;5123057;27;20460;-83
2021/06/05 08:37:35;;;;;;;3.20;2.90;;;24.00;99.90;;;;;;5122609;28;20169;-83
2021/06/05 08:40:06;;;;;;;4.47;4.17;;;24.00;99.90;;;;;;5139630;28;20419;-83
2021/06/05 08:42:41;;;;;;;3.50;3.20;;;23.90;99.90;;;;;;5118390;28;20437;-82
2021/06/05 08:45:09;;;;;;;3.60;3.30;;;23.60;99.90;;;;;;5069613;28;20548;-84
2021/06/05 08:47:38;;;;;;;3.97;3.67;;;23.60;99.90;;;;;;5068687;28;20458;-83
2021/06/05 08:50:11;;;;;;;3.23;2.93;;;23.60;99.90;;;;;;5052287;28;20492;-83
2021/06/05 08:53:14;;;;;;;4.60;3.33;;;23.60;99.90;;;;;;5069776;28;20448;-84
2021/06/05 08:55:44;;;;;;;3.60;3.30;;;23.60;99.90;;;;;;5068784;28;20910;-83
2021/06/05 08:58:37;;;;;;;3.80;3.50;;;23.50;99.90;;;;;;5069399;28;20709;-84
2021/06/05 09:01:22;;;;;;;3.80;3.50;;;23.50;99.90;;;;;;5053957;28;20415;-83
2021/06/05 09:04:10;;;;;;;3.83;3.53;;;23.50;99.90;;;;;;5071398;28;20399;-83
2021/06/05 09:06:43;;;;;;;3.37;3.10;;;23.50;99.90;;;;;;5071795;28;20458;-84
2021/06/05 09:09:16;;;;;;;4.17;3.77;;;23.60;99.90;;;;;;5071209;28;20435;-83
2021/06/05 09:11:42;;;;;;;3.77;3.47;;;23.60;99.90;;;;;;5038740;28;20407;-84
2021/06/05 09:14:08;;;;;;;4.03;3.63;;;23.70;99.90;;;;;;5070234;28;20514;-83
2021/06/05 09:16:40;;;;;;;4.13;3.53;;;23.80;99.90;;;;;;5103408;28;20440;-83
2021/06/05 09:19:29;;;;;;;4.00;3.60;;;24.00;99.90;;;;;;5113121;28;20163;-83
2021/06/05 09:22:21;;;;;;;3.80;3.17;;;24.00;99.90;;;;;;5098644;28;20401;-83
2021/06/05 09:24:51;;;;;;;3.60;3.30;;;24.00;99.90;;;;;;5082684;28;20545;-81
2021/06/05 09:27:25;;;;;;;3.23;2.93;;;24.40;99.90;;;;;;5096045;28;20397;-83
2021/06/05 09:30:00;;;;;;;3.93;3.63;;;24.60;99.90;;;;;;5045190;28;20429;-83
2021/06/05 09:32:30;;;;;;;4.70;3.43;;;24.70;99.90;;;;;;5052237;28;20948;-83
2021/06/05 09:35:21;;;;;;;3.90;3.50;;;24.10;99.90;;;;;;5051450;28;20450;-83
2021/06/05 09:37:52;;;;;;;4.77;4.40;;;24.40;99.90;;;;;;5067223;28;20406;-83
2021/06/05 09:40:25;;;;;;;4.53;3.87;;;24.70;99.90;;;;;;5050290;28;20493;-83
2021/06/05 09:42:56;;;;;;;5.33;3.43;;;24.60;99.90;;;;;;5060065;28;20434;-83
2021/06/05 09:45:41;;;;;;;6.73;4.23;;;24.40;99.90;;;;;;5051242;28;20485;-83
2021/06/05 09:48:31;;;;;;;12.50;3.90;;;23.60;99.90;;;;;;5051292;28;20457;-84
2021/06/05 09:51:04;;;;;;;3.87;3.50;;;23.70;99.90;;;;;;5061238;28;20395;-85
2021/06/05 09:53:36;;;;;;;3.33;2.77;;;23.70;99.90;;;;;;5068048;28;20429;-82
2021/06/05 09:56:23;;;;;;;4.90;3.07;;;23.70;99.90;;;;;;5051077;28;20506;-82
2021/06/05 09:59:01;;;;;;;4.53;3.37;;;24.10;99.90;;;;;;5059032;28;20391;-82
2021/06/05 10:01:30;;;;;;;4.40;3.43;;;24.40;99.90;;;;;;5109110;28;20461;-82
2021/06/05 10:04:11;;;;;;;4.00;3.43;;;24.60;99.90;;;;;;5128861;28;20400;-82
2021/06/05 10:06:59;;;;;;;3.40;3.20;;;24.80;99.90;;;;;;5131359;28;20439;-82
2021/06/05 10:09:35;;;;;;;3.70;3.40;;;24.90;99.90;;;;;;5129198;28;20445;-83
2021/06/05 10:12:24;;;;;;;4.23;3.83;;;24.00;99.90;;;;;;5131073;28;20399;-83
2021/06/05 10:15:11;;;;;;;5.00;3.80;;;24.30;99.90;;;;;;5130993;28;20419;-82
2021/06/05 10:17:47;;;;;;;4.80;4.20;;;24.70;99.90;;;;;;5111813;28;20430;-81
2021/06/05 10:20:22;;;;;;;3.47;3.17;;;24.60;99.90;;;;;;5130877;28;20407;-84
2021/06/05 10:22:54;;;;;;;3.83;3.53;;;24.90;99.90;;;;;;5122139;28;20387;-82
2021/06/05 10:25:35;;;;;;;4.20;3.80;;;25.20;99.90;;;;;;5113520;28;20461;-83
2021/06/05 10:28:12;;;;;;;7.07;4.47;;;25.50;99.90;;;;;;5129402;28;20402;-83
2021/06/05 10:30:47;;;;;;;12.60;4.07;;;25.10;99.90;;;;;;5130266;28;20384;-83
2021/06/05 10:33:33;;;;;;;4.13;3.73;;;25.30;99.90;;;;;;5130595;28;20402;-83
2021/06/05 10:36:01;;;;;;;4.90;4.50;;;25.10;99.90;;;;;;5128475;28;20423;-84
2021/06/05 10:38:44;;;;;;;3.67;3.37;;;25.10;99.90;;;;;;5112246;28;20396;-83
2021/06/05 10:41:15;;;;;;;3.93;3.63;;;25.40;99.90;;;;;;5130335;28;20416;-83
2021/06/05 10:43:43;;;;;;;5.43;4.40;;;25.70;99.90;;;;;;5129900;28;20765;-83
2021/06/05 10:46:28;;;;;;;7.13;3.97;;;25.50;99.90;;;;;;5130149;28;20443;-83
2021/06/05 10:49:07;;;;;;;5.40;4.20;;;25.80;99.90;;;;;;5129536;28;20443;-83
2021/06/05 10:51:35;;;;;;;4.20;3.80;;;25.80;99.90;;;;;;5130386;28;20409;-84
2021/06/05 10:54:06;;;;;;;4.33;4.03;;;25.90;99.90;;;;;;5112865;28;20475;-83
2021/06/05 10:56:39;;;;;;;4.30;4.00;;;25.70;99.90;;;;;;5129744;28;20417;-82
2021/06/05 10:59:26;;;;;;;5.07;4.57;;;25.70;99.90;;;;;;5132049;28;20388;-84
2021/06/05 11:01:52;;;;;;;4.73;4.33;;;25.80;99.90;;;;;;5125868;28;20411;-83
2021/06/05 11:04:38;;;;;;;6.70;5.63;;;25.80;99.90;;;;;;5134299;28;20419;-83
2021/06/05 11:07:22;;;;;;;6.27;4.20;;;26.10;99.90;;;;;;5134802;28;20380;-82
2021/06/05 11:09:52;;;;;;;4.93;4.53;;;26.30;99.90;;;;;;5126440;28;20387;-83
2021/06/05 11:12:42;;;;;;;9.57;4.20;;;26.40;99.90;;;;;;5131847;28;20387;-83
2021/06/05 11:15:32;;;;;;;6.30;4.97;;;26.30;99.90;;;;;;5130944;28;20387;-83
2021/06/05 11:18:35;;;;;;;4.33;4.03;;;26.10;99.90;;;;;;5129441;28;20443;-84
2021/06/05 11:21:33;;;;;;;4.00;3.70;;;25.90;99.90;;;;;;5123314;28;20417;-83
2021/06/05 11:24:23;;;;;;;4.93;3.87;;;25.70;99.90;;;;;;5083188;28;20457;-83
2021/06/05 11:26:54;;;;;;;5.50;4.10;;;25.60;99.90;;;;;;5087298;28;20463;-84
2021/06/05 11:29:47;;;;;;;3.63;3.40;;;25.60;99.90;;;;;;5086707;28;20401;-84
2021/06/05 11:32:35;;;;;;;5.70;3.60;;;25.40;99.90;;;;;;5066783;28;20409;-83
2021/06/05 11:35:10;;;;;;;7.53;3.27;;;25.80;99.90;;;;;;5067089;28;20453;-84
2021/06/05 11:37:49;;;;;;;3.97;3.53;;;25.90;99.90;;;;;;5065347;28;20390;-82
2021/06/05 11:40:57;;;;;;;6.67;3.13;;;26.00;99.90;;;;;;5050965;28;20497;-83
2021/06/05 11:43:45;;;;;;;4.70;3.90;;;26.30;99.90;;;;;;5066193;28;20413;-83
2021/06/05 11:46:41;;;;;;;2.87;2.67;;;26.50;99.90;;;;;;5032496;28;20501;-84
2021/06/05 11:49:10;;;;;;;3.27;2.97;;;26.50;99.90;;;;;;5059098;28;20431;-84
2021/06/05 11:51:42;;;;;;;3.83;3.33;;;26.50;99.90;;;;;;5034939;28;20525;-82
2021/06/05 11:54:21;;;;;;;3.00;2.80;;;27.00;99.90;;;;;;5067448;28;20831;-84
2021/06/05 11:56:53;;;;;;;4.20;3.23;;;27.00;99.90;;;;;;5054012;28;20389;-83
2021/06/05 11:59:27;;;;;;;4.53;4.10;;;27.80;99.90;;;;;;5070208;28;20413;-83
2021/06/05 12:02:03;;;;;;;4.63;3.20;;;28.30;99.90;;;;;;5071733;28;20389;-83
2021/06/05 12:04:35;;;;;;;3.00;2.70;;;28.40;99.90;;;;;;5113987;28;20390;-83
2021/06/05 12:07:18;;;;;;;4.13;3.03;;;27.80;99.90;;;;;;5132163;28;20403;-83
2021/06/05 12:09:43;;;;;;;4.20;3.33;;;27.60;99.90;;;;;;5131447;28;20383;-82
2021/06/05 12:12:10;;;;;;;3.30;3.00;;;27.10;99.90;;;;;;5132094;28;20387;-83
2021/06/05 12:14:47;;;;;;;3.17;2.97;;;26.80;99.90;;;;;;5096665;28;20184;-84
2021/06/05 12:17:33;;;;;;;4.20;3.30;;;26.50;99.90;;;;;;5133923;28;20390;-83
2021/06/05 12:20:28;;;;;;;3.60;3.40;;;26.70;99.90;;;;;;5119576;28;20383;-82
2021/06/05 12:22:58;;;;;;;3.83;3.17;;;26.60;99.90;;;;;;5119809;28;20377;-83
2021/06/05 12:25:40;;;;;;;3.70;2.87;;;26.10;99.90;;;;;;5133494;28;20438;-84
2021/06/05 12:28:22;;;;;;;5.70;2.87;;;26.20;99.90;;;;;;5133302;28;20406;-83
2021/06/05 12:30:49;;;;;;;4.70;3.93;;;26.10;99.90;;;;;;5126602;28;20402;-83
2021/06/05 12:33:31;;;;;;;12.43;3.40;;;26.10;99.90;;;;;;5135503;28;20395;-84
2021/06/05 12:35:57;;;;;;;3.40;2.80;;;26.10;99.90;;;;;;5134355;28;20383;-84
2021/06/05 12:38:36;;;;;;;4.17;3.77;;;26.10;99.90;;;;;;5136334;28;20447;-84
2021/06/05 12:41:07;;;;;;;3.90;2.70;;;26.10;99.90;;;;;;5139181;28;20396;-82
2021/06/05 12:43:36;;;;;;;3.90;3.33;;;25.90;99.90;;;;;;5136314;28;20882;-84
2021/06/05 12:46:07;;;;;;;3.47;3.17;;;26.10;99.90;;;;;;5131834;28;20451;-82
2021/06/05 12:48:34;;;;;;;3.60;3.30;;;26.30;99.90;;;;;;5132680;28;20451;-84
2021/06/05 12:51:02;;;;;;;5.57;3.50;;;26.20;99.90;;;;;;5133151;28;20438;-83
2021/06/05 12:53:29;;;;;;;6.13;4.80;;;26.20;99.90;;;;;;5114838;28;20398;-83
2021/06/05 12:56:01;;;;;;;4.87;3.23;;;26.20;99.90;;;;;;5132693;28;20392;-83
2021/06/05 12:58:39;;;;;;;3.10;2.90;;;26.50;99.90;;;;;;5133416;28;20387;-83
2021/06/05 13:01:29;;;;;;;3.40;2.70;;;26.80;99.90;;;;;;5113204;28;20454;-83
2021/06/05 13:03:56;;;;;;;2.63;2.43;;;26.50;99.90;;;;;;5111874;28;20411;-84